Time;durP1;ratioP1;P1;durP2;ratioP2;P2;SDS_P1;SDS_P2;PMS_P1;PMS_P2;Temp;Humidity;BMP_temperature;BMP_pressure;BME280_temperature;BME280_humidity;BME280_pressure;Samples;Min_cycle;Max_cycle;Signal;HPM_P1;HPM_P2
2021/09/29 00:02:16;;;;;;;29.25;15.95;;;;;;;;;;5037164;28;20049;-81
2021/09/29 00:04:43;;;;;;;27.92;15.48;;;;;;;;;;5037967;28;20045;-81
2021/09/29 00:07:10;;;;;;;30.08;15.10;;;;;;;;;;5035207;28;20045;-82
2021/09/29 00:09:37;;;;;;;31.13;15.18;;;;;;;;;;5026612;28;20050;-82
2021/09/29 00:12:03;;;;;;;31.00;15.48;;;;;;;;;;5027851;28;20045;-82
2021/09/29 00:14:31;;;;;;;24.17;14.88;;;;;;;;;;5023941;28;20672;-82
2021/09/29 00:16:57;;;;;;;30.17;15.43;;;;;;;;;;5034548;28;20050;-82
2021/09/29 00:19:27;;;;;;;28.77;16.55;;;;;;;;;;5036699;28;20054;-82
2021/09/29 00:22:26;;;;;;;32.88;15.68;;;;;;;;;;5037864;28;20041;-81
2021/09/29 00:24:52;;;;;;;32.17;15.88;;;;;;;;;;5035033;28;20052;-81
2021/09/29 00:27:19;;;;;;;24.33;14.65;;;;;;;;;;5034569;28;20053;-82
2021/09/29 00:29:48;;;;;;;28.77;14.25;;;;;;;;;;5036878;28;20076;-82
2021/09/29 00:32:19;;;;;;;29.60;15.48;;;;;;;;;;5037727;28;20054;-82
2021/09/29 00:34:48;;;;;;;29.27;14.35;;;;;;;;;;5039293;28;20053;-82
2021/09/29 00:37:15;;;;;;;29.05;13.13;;;;;;;;;;5037142;28;20075;-82
2021/09/29 00:39:42;;;;;;;25.65;14.13;;;;;;;;;;5033866;28;20049;-82
2021/09/29 00:42:12;;;;;;;23.60;13.73;;;;;;;;;;5033104;28;20041;-82
2021/09/29 00:44:39;;;;;;;23.17;14.48;;;;;;;;;;5038468;28;20049;-82
2021/09/29 00:47:05;;;;;;;29.75;14.25;;;;;;;;;;5038521;28;20053;-83
2021/09/29 00:49:34;;;;;;;23.92;13.77;;;;;;;;;;5036269;28;20057;-82
2021/09/29 00:52:14;;;;;;;29.08;14.73;;;;;;;;;;5040456;28;20057;-82
2021/09/29 00:54:41;;;;;;;23.70;13.70;;;;;;;;;;5026282;28;20149;-83
2021/09/29 00:57:08;;;;;;;25.70;14.30;;;;;;;;;;5036408;28;20050;-82
2021/09/29 00:59:35;;;;;;;28.00;15.05;;;;;;;;;;5034861;28;20054;-81
2021/09/29 01:02:02;;;;;;;25.48;14.95;;;;;;;;;;5025134;28;20068;-82
2021/09/29 01:04:29;;;;;;;30.75;15.05;;;;;;;;;;5026089;28;20267;-84
2021/09/29 01:07:02;;;;;;;25.67;14.68;;;;;;;;;;5028835;28;20050;-84
2021/09/29 01:09:32;;;;;;;26.42;15.02;;;;;;;;;;5027707;28;20038;-82
2021/09/29 01:12:12;;;;;;;22.73;14.25;;;;;;;;;;5034798;28;20111;-82
2021/09/29 01:15:05;;;;;;;23.98;14.75;;;;;;;;;;5036118;28;20049;-84
2021/09/29 01:17:33;;;;;;;28.60;15.15;;;;;;;;;;5036043;28;20057;-83
2021/09/29 01:20:03;;;;;;;32.70;16.30;;;;;;;;;;5038414;28;20061;-84
2021/09/29 01:22:45;;;;;;;25.63;15.07;;;;;;;;;;5034410;28;20041;-82
2021/09/29 01:25:30;;;;;;;30.67;15.77;;;;;;;;;;5018521;28;20053;-82
2021/09/29 01:27:58;;;;;;;35.40;16.17;;;;;;;;;;5033870;28;20308;-82
2021/09/29 01:30:25;;;;;;;32.28;16.00;;;;;;;;;;5040424;28;20049;-83
2021/09/29 01:32:53;;;;;;;25.95;16.15;;;;;;;;;;5039958;28;20060;-82
2021/09/29 01:35:19;;;;;;;29.23;16.17;;;;;;;;;;5036837;28;20050;-82
2021/09/29 01:37:47;;;;;;;35.58;16.08;;;;;;;;;;5036692;28;20062;-82
2021/09/29 01:40:20;;;;;;;27.73;15.68;;;;;;;;;;5033929;28;20116;-82
2021/09/29 01:42:48;;;;;;;25.83;15.52;;;;;;;;;;5040362;28;20045;-82
2021/09/29 01:45:14;;;;;;;36.13;16.80;;;;;;;;;;5045016;28;20053;-82
2021/09/29 01:47:41;;;;;;;28.13;16.60;;;;;;;;;;5027700;28;20049;-82
2021/09/29 01:50:09;;;;;;;29.02;16.55;;;;;;;;;;5035678;28;20056;-82
2021/09/29 01:52:38;;;;;;;34.13;17.70;;;;;;;;;;5046196;28;20201;-82
2021/09/29 01:58:31;;;;;;;29.00;16.77;;;;;;;;;;5033208;28;20130;-82
2021/09/29 02:00:58;;;;;;;28.25;16.95;;;;;;;;;;5037146;28;20487;-82
2021/09/29 02:03:24;;;;;;;33.00;17.75;;;;;;;;;;5040593;28;20373;-82
2021/09/29 02:05:54;;;;;;;31.70;17.00;;;;;;;;;;5041425;28;20065;-83
2021/09/29 02:08:21;;;;;;;29.73;16.33;;;;;;;;;;5040975;28;20041;-83
2021/09/29 02:10:47;;;;;;;28.30;16.27;;;;;;;;;;5056678;28;20076;-83
2021/09/29 02:13:14;;;;;;;29.58;17.35;;;;;;;;;;5040515;28;20305;-83
2021/09/29 02:15:48;;;;;;;41.85;16.90;;;;;;;;;;5040336;28;20049;-83
2021/09/29 02:18:15;;;;;;;32.20;16.50;;;;;;;;;;5055139;28;20061;-83
2021/09/29 02:20:41;;;;;;;29.73;15.90;;;;;;;;;;5066991;28;20075;-82
2021/09/29 02:23:17;;;;;;;34.75;16.85;;;;;;;;;;5053902;28;20084;-83
2021/09/29 02:25:44;;;;;;;33.85;17.35;;;;;;;;;;5040719;28;20064;-83
2021/09/29 02:28:11;;;;;;;27.80;16.80;;;;;;;;;;5019678;28;20053;-83
2021/09/29 02:30:43;;;;;;;28.77;16.00;;;;;;;;;;5027618;28;20042;-82
2021/09/29 02:33:13;;;;;;;32.67;17.13;;;;;;;;;;5034805;28;20097;-83
2021/09/29 02:35:40;;;;;;;30.52;16.20;;;;;;;;;;5025044;28;20049;-83
2021/09/29 02:38:06;;;;;;;26.17;16.70;;;;;;;;;;5018666;28;20109;-83
2021/09/29 02:40:33;;;;;;;29.17;17.85;;;;;;;;;;5036145;28;20042;-83
2021/09/29 02:43:00;;;;;;;33.85;17.42;;;;;;;;;;5035605;28;20042;-83
2021/09/29 02:45:26;;;;;;;30.45;16.55;;;;;;;;;;5045523;28;20057;-83
2021/09/29 02:47:53;;;;;;;29.75;18.20;;;;;;;;;;5054140;28;20057;-85
2021/09/29 02:50:19;;;;;;;31.83;16.92;;;;;;;;;;5034357;28;20045;-83
2021/09/29 02:52:49;;;;;;;32.28;17.48;;;;;;;;;;5034333;28;20112;-83
2021/09/29 02:55:16;;;;;;;28.58;16.83;;;;;;;;;;5017883;28;20050;-83
2021/09/29 02:57:42;;;;;;;34.58;17.33;;;;;;;;;;5034096;28;20064;-83
2021/09/29 03:00:09;;;;;;;30.42;17.67;;;;;;;;;;5019612;28;20410;-83
2021/09/29 03:02:36;;;;;;;34.05;18.90;;;;;;;;;;5018946;28;20085;-83
2021/09/29 03:05:03;;;;;;;35.00;18.17;;;;;;;;;;5020524;28;20081;-83
2021/09/29 03:07:30;;;;;;;28.02;17.65;;;;;;;;;;5020178;28;20068;-83
2021/09/29 03:09:56;;;;;;;25.50;17.23;;;;;;;;;;5032773;28;20053;-82
2021/09/29 03:12:29;;;;;;;34.85;18.08;;;;;;;;;;5043639;28;20396;-83
2021/09/29 03:14:56;;;;;;;26.40;15.93;;;;;;;;;;5043415;28;20060;-83
2021/09/29 03:17:23;;;;;;;33.67;16.98;;;;;;;;;;5043517;28;20049;-83
2021/09/29 03:20:08;;;;;;;31.08;17.23;;;;;;;;;;5052417;28;20065;-83
2021/09/29 03:22:35;;;;;;;31.15;17.70;;;;;;;;;;5036264;28;20657;-83
2021/09/29 03:25:02;;;;;;;31.88;16.85;;;;;;;;;;5023229;28;20320;-82
2021/09/29 03:27:32;;;;;;;31.58;17.30;;;;;;;;;;5041051;28;20113;-83
2021/09/29 03:29:59;;;;;;;27.75;16.20;;;;;;;;;;5042541;28;20064;-83
2021/09/29 03:32:28;;;;;;;30.73;17.05;;;;;;;;;;5041382;28;20498;-83
2021/09/29 03:34:55;;;;;;;30.15;15.35;;;;;;;;;;5041004;28;20148;-82
2021/09/29 03:37:21;;;;;;;25.50;16.33;;;;;;;;;;5038752;28;20060;-83
2021/09/29 03:39:48;;;;;;;27.63;16.52;;;;;;;;;;5038993;28;20108;-83
2021/09/29 03:42:15;;;;;;;29.77;16.42;;;;;;;;;;5033598;28;20049;-83
2021/09/29 03:44:42;;;;;;;27.77;15.82;;;;;;;;;;5038409;28;20069;-83
2021/09/29 03:47:08;;;;;;;24.73;14.82;;;;;;;;;;5037512;28;20152;-82
2021/09/29 03:49:39;;;;;;;28.55;14.80;;;;;;;;;;5036866;28;20342;-84
2021/09/29 03:52:08;;;;;;;27.20;16.15;;;;;;;;;;5037437;28;20215;-82
2021/09/29 03:54:35;;;;;;;30.15;15.27;;;;;;;;;;5036671;28;20064;-83
2021/09/29 03:57:02;;;;;;;25.35;13.80;;;;;;;;;;5036210;28;20064;-84
2021/09/29 03:59:29;;;;;;;24.17;14.38;;;;;;;;;;5035748;28;20053;-83
2021/09/29 04:01:55;;;;;;;24.85;13.95;;;;;;;;;;5033932;28;20049;-83
2021/09/29 04:04:22;;;;;;;26.73;14.02;;;;;;;;;;5034946;28;20065;-83
2021/09/29 04:06:49;;;;;;;25.67;13.88;;;;;;;;;;5033476;28;20301;-83
2021/09/29 04:09:15;;;;;;;25.77;14.02;;;;;;;;;;5036666;28;20139;-84
2021/09/29 04:11:42;;;;;;;25.55;13.88;;;;;;;;;;5033107;28;20057;-83
2021/09/29 04:14:09;;;;;;;27.13;14.10;;;;;;;;;;5020094;28;20042;-84
2021/09/29 04:16:35;;;;;;;21.67;14.63;;;;;;;;;;5036482;28;20057;-84
2021/09/29 04:19:02;;;;;;;25.80;13.23;;;;;;;;;;5036106;28;20060;-84
2021/09/29 04:21:29;;;;;;;24.70;13.43;;;;;;;;;;5036739;28;20341;-84
2021/09/29 04:23:59;;;;;;;21.50;13.45;;;;;;;;;;5035476;28;20360;-84
2021/09/29 04:26:29;;;;;;;27.05;13.43;;;;;;;;;;5034302;28;20045;-84
2021/09/29 04:28:56;;;;;;;20.90;12.73;;;;;;;;;;5034062;28;20168;-84
2021/09/29 04:31:23;;;;;;;23.73;12.45;;;;;;;;;;5033954;28;20053;-84
2021/09/29 04:33:49;;;;;;;23.63;12.35;;;;;;;;;;5034977;28;20068;-83
2021/09/29 04:36:16;;;;;;;20.85;12.25;;;;;;;;;;5034101;28;20352;-83
2021/09/29 04:38:42;;;;;;;17.05;11.10;;;;;;;;;;5032371;28;20046;-83
2021/09/29 04:41:09;;;;;;;20.35;12.45;;;;;;;;;;5032388;28;20042;-83
2021/09/29 04:43:36;;;;;;;21.60;12.80;;;;;;;;;;5027724;28;20052;-83
2021/09/29 04:46:03;;;;;;;18.95;11.05;;;;;;;;;;5024974;28;20091;-83
2021/09/29 04:48:29;;;;;;;23.55;11.50;;;;;;;;;;5028897;28;20266;-83
2021/09/29 04:50:56;;;;;;;18.23;11.80;;;;;;;;;;5029304;28;20076;-83
2021/09/29 04:53:22;;;;;;;21.63;12.30;;;;;;;;;;5016899;28;20042;-82
2021/09/29 04:56:00;;;;;;;21.23;12.65;;;;;;;;;;5030201;28;20120;-83
2021/09/29 04:58:27;;;;;;;26.63;12.63;;;;;;;;;;5047963;28;20056;-84
2021/09/29 05:00:53;;;;;;;19.73;11.98;;;;;;;;;;5017518;28;20064;-84
2021/09/29 05:03:23;;;;;;;20.95;12.05;;;;;;;;;;5025109;28;20037;-84
2021/09/29 05:05:49;;;;;;;19.05;11.95;;;;;;;;;;5019328;28;20382;-84
2021/09/29 05:08:27;;;;;;;24.30;11.68;;;;;;;;;;5010397;28;20145;-84
2021/09/29 05:11:00;;;;;;;24.73;12.68;;;;;;;;;;5026670;28;20136;-84
2021/09/29 05:13:30;;;;;;;20.00;11.73;;;;;;;;;;5014042;28;20046;-84
2021/09/29 05:16:03;;;;;;;21.70;13.13;;;;;;;;;;5018673;28;20107;-84
2021/09/29 05:18:30;;;;;;;20.77;11.40;;;;;;;;;;5031306;28;20084;-84
2021/09/29 05:20:56;;;;;;;25.83;12.43;;;;;;;;;;5033137;28;20049;-84
2021/09/29 05:23:23;;;;;;;17.17;11.40;;;;;;;;;;5016170;28;20413;-83
2021/09/29 05:25:53;;;;;;;21.42;12.25;;;;;;;;;;5020582;28;20064;-83
2021/09/29 05:28:25;;;;;;;22.95;12.55;;;;;;;;;;5032030;28;20049;-84
2021/09/29 05:30:52;;;;;;;19.80;11.57;;;;;;;;;;5034908;28;20272;-83
2021/09/29 05:33:19;;;;;;;18.20;11.75;;;;;;;;;;5047875;28;20037;-83
2021/09/29 05:35:45;;;;;;;22.70;11.90;;;;;;;;;;5048826;28;20112;-84
2021/09/29 05:38:12;;;;;;;19.20;11.88;;;;;;;;;;5033843;28;20053;-84
2021/09/29 05:41:00;;;;;;;19.13;11.57;;;;;;;;;;5034670;28;20050;-84
2021/09/29 05:43:27;;;;;;;19.13;11.43;;;;;;;;;;5037839;28;20030;-84
2021/09/29 05:45:54;;;;;;;18.88;11.82;;;;;;;;;;5047225;28;20068;-84
2021/09/29 05:48:20;;;;;;;19.33;12.20;;;;;;;;;;5035030;28;20087;-84
2021/09/29 05:50:47;;;;;;;25.10;11.77;;;;;;;;;;5029246;28;20075;-84
2021/09/29 05:53:17;;;;;;;19.23;12.38;;;;;;;;;;5029049;28;20045;-83
2021/09/29 05:55:43;;;;;;;23.15;11.52;;;;;;;;;;5030488;28;20076;-83
2021/09/29 05:58:19;;;;;;;23.25;11.48;;;;;;;;;;5031342;28;20045;-83
2021/09/29 06:00:46;;;;;;;;;;;;;;;;;;5031392;28;20045;-84
2021/09/29 06:03:13;;;;;;;22.75;12.00;;;;;;;;;;5030832;28;20004;-84
2021/09/29 06:05:40;;;;;;;19.02;11.45;;;;;;;;;;5033239;28;20056;-84
2021/09/29 06:08:06;;;;;;;24.13;11.18;;;;;;;;;;5029741;28;20049;-84
2021/09/29 06:10:33;;;;;;;25.83;11.18;;;;;;;;;;5031248;28;20049;-84
2021/09/29 06:13:00;;;;;;;20.00;11.38;;;;;;;;;;5030999;28;20057;-84
2021/09/29 06:15:31;;;;;;;16.15;10.75;;;;;;;;;;5026535;28;20050;-84
2021/09/29 06:17:59;;;;;;;19.38;10.50;;;;;;;;;;5009929;28;20313;-83
2021/09/29 06:20:27;;;;;;;26.85;11.55;;;;;;;;;;5012262;28;20244;-83
2021/09/29 06:22:54;;;;;;;15.82;10.73;;;;;;;;;;5015851;28;20054;-83
2021/09/29 06:25:22;;;;;;;18.42;10.75;;;;;;;;;;5026748;28;20054;-82
2021/09/29 06:27:49;;;;;;;18.63;10.20;;;;;;;;;;5012109;28;20468;-83
2021/09/29 06:30:16;;;;;;;18.23;10.18;;;;;;;;;;5031972;28;20296;-82
2021/09/29 06:32:46;;;;;;;21.20;10.20;;;;;;;;;;5035106;28;20407;-83
2021/09/29 06:35:14;;;;;;;15.65;9.70;;;;;;;;;;5033295;28;20057;-83
2021/09/29 06:37:44;;;;;;;23.55;9.90;;;;;;;;;;5034007;28;20050;-83
2021/09/29 06:40:15;;;;;;;14.18;9.40;;;;;;;;;;5031683;28;20041;-83
2021/09/29 06:42:45;;;;;;;14.25;9.23;;;;;;;;;;5015664;28;20240;-83
2021/09/29 06:45:12;;;;;;;18.40;10.13;;;;;;;;;;5030711;28;20049;-83
2021/09/29 06:47:39;;;;;;;14.35;9.27;;;;;;;;;;5032267;28;20134;-85
2021/09/29 06:50:08;;;;;;;14.15;9.77;;;;;;;;;;5033110;28;20440;-83
2021/09/29 06:52:36;;;;;;;17.20;9.75;;;;;;;;;;5031815;28;20500;-83
2021/09/29 06:55:03;;;;;;;16.33;9.52;;;;;;;;;;5030969;28;20057;-83
2021/09/29 06:57:30;;;;;;;18.20;9.43;;;;;;;;;;5031464;28;20060;-83
2021/09/29 06:59:57;;;;;;;13.57;9.18;;;;;;;;;;5033660;28;20096;-83
2021/09/29 07:02:24;;;;;;;16.58;9.90;;;;;;;;;;5031159;28;20124;-82
2021/09/29 07:04:51;;;;;;;15.10;8.55;;;;;;;;;;5037241;28;20053;-85
2021/09/29 07:07:17;;;;;;;13.13;8.00;;;;;;;;;;5019844;28;20066;-85
2021/09/29 07:09:44;;;;;;;10.05;7.75;;;;;;;;;;5036354;28;20107;-82
2021/09/29 07:12:11;;;;;;;19.48;9.20;;;;;;;;;;5024814;28;20104;-82
2021/09/29 07:14:37;;;;;;;18.05;8.00;;;;;;;;;;5023663;28;20256;-84
2021/09/29 07:17:04;;;;;;;9.93;7.40;;;;;;;;;;5031137;28;20041;-82
2021/09/29 07:19:31;;;;;;;12.05;7.40;;;;;;;;;;5032772;28;20222;-82
2021/09/29 07:21:58;;;;;;;11.07;7.32;;;;;;;;;;5034167;28;20049;-84
2021/09/29 07:24:24;;;;;;;15.43;8.27;;;;;;;;;;5025281;28;20109;-85
2021/09/29 07:26:57;;;;;;;13.85;7.93;;;;;;;;;;5033652;28;20049;-83
2021/09/29 07:29:24;;;;;;;12.27;7.15;;;;;;;;;;5025750;28;20506;-84
2021/09/29 07:31:50;;;;;;;10.23;6.68;;;;;;;;;;5011310;28;20054;-83
2021/09/29 07:34:23;;;;;;;15.02;7.18;;;;;;;;;;5019641;28;20108;-84
2021/09/29 07:36:50;;;;;;;10.10;6.20;;;;;;;;;;5044014;28;20196;-84
2021/09/29 07:39:17;;;;;;;14.07;6.47;;;;;;;;;;5029590;28;20116;-84
2021/09/29 07:41:44;;;;;;;13.65;7.28;;;;;;;;;;5025913;28;20056;-83
2021/09/29 07:44:12;;;;;;;14.48;7.63;;;;;;;;;;5027376;28;20045;-84
2021/09/29 07:46:39;;;;;;;17.92;7.47;;;;;;;;;;5030980;28;20334;-84
2021/09/29 07:49:05;;;;;;;14.50;7.38;;;;;;;;;;5032491;28;20057;-83
2021/09/29 07:51:42;;;;;;;17.85;7.57;;;;;;;;;;5027341;28;20080;-83
2021/09/29 07:54:08;;;;;;;23.17;7.38;;;;;;;;;;5022523;28;20348;-84
2021/09/29 07:56:35;;;;;;;14.48;7.25;;;;;;;;;;5022766;28;20349;-84
2021/09/29 07:59:01;;;;;;;13.88;7.05;;;;;;;;;;5010960;28;20153;-83
2021/09/29 08:01:44;;;;;;;10.40;6.78;;;;;;;;;;5029144;28;20054;-84
2021/09/29 08:04:11;;;;;;;11.77;6.50;;;;;;;;;;5011568;28;20146;-84
2021/09/29 08:06:38;;;;;;;12.43;6.63;;;;;;;;;;5028550;28;20053;-83
2021/09/29 08:09:08;;;;;;;10.05;6.38;;;;;;;;;;5044698;28;20060;-83
2021/09/29 08:11:34;;;;;;;10.93;6.35;;;;;;;;;;5044966;28;20045;-84
2021/09/29 08:14:01;;;;;;;18.38;6.72;;;;;;;;;;5015017;28;20149;-84
2021/09/29 08:16:31;;;;;;;9.90;5.78;;;;;;;;;;5015229;28;20248;-83
2021/09/29 08:18:58;;;;;;;7.82;5.18;;;;;;;;;;5038578;28;20075;-84
2021/09/29 08:21:29;;;;;;;10.18;6.18;;;;;;;;;;5030477;28;20368;-84
2021/09/29 08:24:13;;;;;;;9.30;5.20;;;;;;;;;;5031141;28;20067;-83
2021/09/29 08:32:27;;;;;;;9.80;5.20;;;;;;;;;;5023332;28;20530;-84
2021/09/29 08:35:09;;;;;;;12.85;5.72;;;;;;;;;;5026676;28;20042;-84
2021/09/29 08:37:40;;;;;;;6.47;5.20;;;;;;;;;;5028297;28;20049;-84
2021/09/29 08:40:26;;;;;;;8.57;5.30;;;;;;;;;;5029988;28;20046;-84
2021/09/29 08:43:14;;;;;;;10.75;5.88;;;;;;;;;;5039929;28;20306;-83
2021/09/29 09:16:11;;;;;;;7.38;5.63;;;;;;;;;;5019919;28;20053;-84
2021/09/29 09:18:50;;;;;;;9.70;4.82;;;;;;;;;;5024301;28;20250;-84
2021/09/29 09:21:46;;;;;;;11.90;5.57;;;;;;;;;;5040724;28;20053;-84
2021/09/29 09:24:15;;;;;;;11.38;4.47;;;;;;;;;;5028028;28;20153;-83
2021/09/29 09:26:44;;;;;;;9.40;4.15;;;;;;;;;;5022065;28;20108;-83
2021/09/29 09:29:11;;;;;;;10.73;4.03;;;;;;;;;;5005274;28;20400;-83
2021/09/29 09:31:39;;;;;;;6.25;3.70;;;;;;;;;;5010991;28;20082;-83
2021/09/29 09:34:07;;;;;;;7.25;4.05;;;;;;;;;;5022644;28;20045;-83
2021/09/29 09:36:46;;;;;;;12.38;4.00;;;;;;;;;;5035834;28;20107;-83
2021/09/29 09:39:16;;;;;;;8.52;3.83;;;;;;;;;;5003244;28;20433;-83
2021/09/29 09:41:50;;;;;;;8.98;3.97;;;;;;;;;;5006953;28;20046;-84
2021/09/29 09:44:25;;;;;;;8.88;4.10;;;;;;;;;;5011589;28;20487;-84
2021/09/29 09:47:06;;;;;;;13.75;4.00;;;;;;;;;;5038575;28;20041;-83
2021/09/29 09:50:03;;;;;;;4.65;3.65;;;;;;;;;;5011923;28;20053;-83
2021/09/29 09:52:32;;;;;;;6.78;3.65;;;;;;;;;;5024074;28;20104;-83
2021/09/29 09:55:03;;;;;;;6.85;3.47;;;;;;;;;;5037894;28;20050;-84
2021/09/29 09:57:30;;;;;;;5.85;3.10;;;;;;;;;;5023448;28;20046;-83
2021/09/29 09:59:58;;;;;;;8.60;2.92;;;;;;;;;;5030602;28;20320;-83
2021/09/29 10:02:25;;;;;;;8.80;3.50;;;;;;;;;;5034786;28;20170;-84
2021/09/29 10:04:55;;;;;;;7.85;2.85;;;;;;;;;;5022489;28;20045;-84
2021/09/29 10:07:21;;;;;;;12.55;3.25;;;;;;;;;;5017140;28;20049;-84
2021/09/29 10:10:00;;;;;;;13.40;3.83;;;;;;;;;;5018112;28;20182;-84
2021/09/29 10:27:08;;;;;;;7.93;2.88;;;;;;;;;;5012986;28;20057;-83
2021/09/29 10:29:36;;;;;;;6.35;2.58;;;;;;;;;;5016000;28;20049;-84
2021/09/29 10:32:22;;;;;;;8.70;2.53;;;;;;;;;;5028021;28;20437;-84
2021/09/29 10:35:06;;;;;;;7.88;2.80;;;;;;;;;;5017376;28;20168;-84
2021/09/29 10:46:22;;;;;;;6.18;2.85;;;;;;;;;;5024701;28;20048;-83
2021/09/29 11:30:20;;;;;;;8.48;3.33;;;;;;;;;;5020369;28;20135;-84
2021/09/29 11:35:28;;;;;;;9.60;3.28;;;;;;;;;;5019515;28;20289;-83
2021/09/29 12:11:27;;;;;;;9.05;2.80;;;;;;;;;;5018970;28;20567;-86
2021/09/29 12:14:02;;;;;;;7.30;2.65;;;;;;;;;;5034953;28;20057;-84
2021/09/29 12:16:36;;;;;;;15.50;2.83;;;;;;;;;;5038679;28;20272;-83
2021/09/29 12:19:03;;;;;;;9.02;2.00;;;;;;;;;;5020277;28;20046;-83
2021/09/29 12:21:34;;;;;;;6.97;2.25;;;;;;;;;;5039107;28;20520;-82
2021/09/29 12:24:01;;;;;;;5.00;1.70;;;;;;;;;;5030686;28;20432;-82
2021/09/29 12:26:38;;;;;;;7.18;2.30;;;;;;;;;;5017970;28;20140;-83
2021/09/29 12:29:30;;;;;;;6.93;2.33;;;;;;;;;;5038022;28;20119;-83
2021/09/29 12:37:52;;;;;;;6.80;2.92;;;;;;;;;;5015912;28;20473;-83
2021/09/29 12:40:30;;;;;;;6.47;2.38;;;;;;;;;;5016377;28;20045;-84
2021/09/29 12:43:01;;;;;;;8.98;2.80;;;;;;;;;;5033722;28;20069;-84
2021/09/29 12:45:31;;;;;;;7.35;2.75;;;;;;;;;;5020317;28;20484;-83
2021/09/29 12:48:02;;;;;;;11.73;3.03;;;;;;;;;;5020123;28;20055;-83
2021/09/29 12:56:03;;;;;;;11.68;3.20;;;;;;;;;;5022129;28;20213;-84
2021/09/29 12:58:31;;;;;;;5.72;2.45;;;;;;;;;;5026671;28;20104;-85
2021/09/29 13:00:59;;;;;;;5.07;2.45;;;;;;;;;;5022656;28;20360;-84
2021/09/29 13:03:26;;;;;;;8.27;2.60;;;;;;;;;;5017875;28;20050;-85
2021/09/29 13:05:58;;;;;;;11.40;2.92;;;;;;;;;;5037561;28;20264;-85
2021/09/29 13:08:28;;;;;;;11.20;3.20;;;;;;;;;;5019751;28;20141;-85
2021/09/29 13:10:55;;;;;;;5.25;2.55;;;;;;;;;;5017495;28;20312;-86
2021/09/29 13:13:22;;;;;;;9.18;2.22;;;;;;;;;;5019718;28;20218;-85
2021/09/29 13:15:53;;;;;;;10.15;2.97;;;;;;;;;;5016778;28;20058;-83
2021/09/29 13:21:05;;;;;;;4.43;2.53;;;;;;;;;;5019900;28;20045;-85
2021/09/29 13:23:37;;;;;;;7.13;2.67;;;;;;;;;;5040613;28;20069;-86
2021/09/29 13:37:23;;;;;;;3.78;2.35;;;;;;;;;;5023816;28;20061;-86
2021/09/29 13:39:52;;;;;;;4.72;2.58;;;;;;;;;;5022643;28;20414;-88
2021/09/29 13:42:19;;;;;;;3.03;1.95;;;;;;;;;;5026614;28;20120;-87
2021/09/29 13:44:50;;;;;;;4.93;2.97;;;;;;;;;;5041242;28;20117;-86
2021/09/29 13:47:33;;;;;;;3.67;2.45;;;;;;;;;;5035606;28;20050;-86
2021/09/29 13:50:07;;;;;;;5.32;1.98;;;;;;;;;;5032317;28;20048;-86
2021/09/29 13:52:37;;;;;;;5.90;1.90;;;;;;;;;;5026214;28;20049;-86
2021/09/29 13:55:08;;;;;;;2.60;1.83;;;;;;;;;;5024311;28;20068;-86
2021/09/29 14:03:20;;;;;;;7.53;2.35;;;;;;;;;;5030296;28;20995;-87
2021/09/29 14:30:59;;;;;;;2.75;2.05;;;;;;;;;;5022667;28;20345;-86
2021/09/29 14:33:28;;;;;;;3.13;2.10;;;;;;;;;;5024791;28;20057;-84
2021/09/29 14:36:01;;;;;;;2.20;1.98;;;;;;;;;;5019582;28;20054;-84
2021/09/29 14:38:27;;;;;;;2.42;2.13;;;;;;;;;;5029274;28;20057;-86
2021/09/29 14:40:54;;;;;;;3.30;1.73;;;;;;;;;;5020421;28;20050;-85
2021/09/29 14:43:24;;;;;;;1.30;1.20;;;;;;;;;;5042091;28;20120;-85
2021/09/29 14:45:50;;;;;;;2.15;1.40;;;;;;;;;;5023978;28;20041;-86
2021/09/29 14:48:17;;;;;;;4.72;1.17;;;;;;;;;;5019644;28;20665;-84
2021/09/29 14:50:49;;;;;;;1.35;1.13;;;;;;;;;;5026197;28;20152;-86
2021/09/29 14:53:16;;;;;;;2.90;1.02;;;;;;;;;;5020353;28;20042;-86
2021/09/29 14:55:46;;;;;;;1.20;0.98;;;;;;;;;;5026704;28;20108;-85
2021/09/29 14:58:12;;;;;;;1.02;0.93;;;;;;;;;;5018740;28;20123;-86
2021/09/29 15:00:39;;;;;;;0.82;0.60;;;;;;;;;;5032323;28;20491;-86
2021/09/29 15:03:07;;;;;;;1.60;0.70;;;;;;;;;;5029709;28;20214;-86
2021/09/29 15:05:37;;;;;;;6.72;0.77;;;;;;;;;;5032994;28;20046;-85
2021/09/29 15:08:04;;;;;;;1.10;0.25;;;;;;;;;;5048108;28;20113;-85
2021/09/29 15:10:31;;;;;;;0.75;0.73;;;;;;;;;;5032434;28;20162;-86
2021/09/29 15:13:01;;;;;;;1.10;0.50;;;;;;;;;;5025549;28;20113;-86
2021/09/29 15:15:32;;;;;;;2.05;0.40;;;;;;;;;;5048940;28;20034;-84
2021/09/29 15:18:05;;;;;;;3.83;0.40;;;;;;;;;;5052680;28;20045;-83
2021/09/29 15:25:46;;;;;;;0.43;0.43;;;;;;;;;;5021862;28;20164;-86
2021/09/29 15:47:49;;;;;;;0.40;0.30;;;;;;;;;;5021782;28;20060;-84
2021/09/29 15:55:42;;;;;;;0.93;0.43;;;;;;;;;;5012683;28;20211;-86
2021/09/29 15:58:37;;;;;;;1.65;0.50;;;;;;;;;;5021492;28;20503;-86
2021/09/29 16:01:04;;;;;;;0.40;0.40;;;;;;;;;;5023824;28;20106;-86
2021/09/29 16:31:31;;;;;;;5.43;1.15;;;;;;;;;;5020271;28;20049;-85
2021/09/29 16:36:24;;;;;;;3.17;1.08;;;;;;;;;;4984035;28;20148;-86
2021/09/29 16:38:50;;;;;;;2.90;1.45;;;;;;;;;;5030504;28;20493;-85
2021/09/29 16:41:19;;;;;;;1.50;1.30;;;;;;;;;;5035846;28;20437;-85
2021/09/29 16:43:46;;;;;;;3.33;1.40;;;;;;;;;;5013335;28;20256;-85
2021/09/29 16:46:15;;;;;;;2.70;1.40;;;;;;;;;;5025609;28;20067;-84
2021/09/29 16:48:43;;;;;;;2.22;1.50;;;;;;;;;;5019571;28;20045;-85
2021/09/29 16:51:22;;;;;;;4.05;2.35;;;;;;;;;;5012492;28;20113;-85
2021/09/29 16:54:05;;;;;;;2.97;1.90;;;;;;;;;;5022121;28;20045;-85
2021/09/29 16:56:37;;;;;;;2.47;1.95;;;;;;;;;;5037652;28;20238;-86
2021/09/29 16:59:12;;;;;;;2.10;1.73;;;;;;;;;;5018311;28;20114;-85
2021/09/29 17:01:39;;;;;;;3.67;1.98;;;;;;;;;;5016778;28;20049;-85
2021/09/29 17:04:09;;;;;;;7.75;2.55;;;;;;;;;;5039581;28;20054;-85
2021/09/29 17:06:37;;;;;;;4.22;2.05;;;;;;;;;;5023010;28;20176;-85
2021/09/29 17:09:03;;;;;;;2.88;2.05;;;;;;;;;;5018913;28;20096;-85
2021/09/29 17:11:39;;;;;;;4.65;2.10;;;;;;;;;;5030291;28;20050;-85
2021/09/29 17:14:06;;;;;;;3.83;2.58;;;;;;;;;;5018457;28;20309;-85
2021/09/29 17:16:33;;;;;;;2.83;2.25;;;;;;;;;;5038986;28;20053;-85
2021/09/29 17:19:04;;;;;;;2.70;2.35;;;;;;;;;;5054502;28;20113;-85
2021/09/29 17:21:53;;;;;;;4.82;2.30;;;;;;;;;;5028973;28;20061;-85
2021/09/29 17:24:19;;;;;;;3.45;2.10;;;;;;;;;;5039935;28;20057;-85
2021/09/29 17:26:46;;;;;;;5.40;1.92;;;;;;;;;;5050040;28;20076;-85
2021/09/29 17:29:16;;;;;;;2.22;2.00;;;;;;;;;;5031611;28;20191;-86
2021/09/29 17:34:22;;;;;;;3.28;1.58;;;;;;;;;;5025395;28;20310;-86
2021/09/29 17:39:57;;;;;;;3.58;1.60;;;;;;;;;;5021615;28;20085;-84
2021/09/29 17:53:26;;;;;;;3.65;2.40;;;;;;;;;;5029397;28;20370;-83
2021/09/29 17:55:54;;;;;;;3.38;2.25;;;;;;;;;;5026460;28;20137;-84
2021/09/29 17:58:20;;;;;;;3.30;2.10;;;;;;;;;;5026570;28;20057;-82
2021/09/29 18:00:49;;;;;;;4.35;2.75;;;;;;;;;;5018347;28;20056;-84
2021/09/29 18:03:25;;;;;;;6.00;2.55;;;;;;;;;;5039560;28;20232;-84
2021/09/29 18:08:40;;;;;;;8.32;2.50;;;;;;;;;;5018922;28;20084;-84
2021/09/29 18:11:07;;;;;;;3.22;2.05;;;;;;;;;;5026971;28;20056;-83
2021/09/29 18:13:34;;;;;;;5.43;2.47;;;;;;;;;;5031480;28;20053;-83
2021/09/29 18:16:00;;;;;;;4.88;2.63;;;;;;;;;;5034910;28;20043;-84
2021/09/29 18:18:27;;;;;;;4.90;2.67;;;;;;;;;;5045676;28;20191;-84
2021/09/29 18:20:54;;;;;;;5.20;2.80;;;;;;;;;;5032310;28;20050;-84
2021/09/29 18:23:21;;;;;;;5.25;2.67;;;;;;;;;;5038678;28;20293;-84
2021/09/29 18:25:47;;;;;;;5.47;2.42;;;;;;;;;;5023754;28;20122;-83
2021/09/29 18:28:18;;;;;;;5.40;3.13;;;;;;;;;;5045465;28;20049;-84
2021/09/29 18:30:45;;;;;;;6.95;2.85;;;;;;;;;;5046478;28;20049;-84
2021/09/29 18:33:24;;;;;;;7.28;2.30;;;;;;;;;;5030094;28;20038;-83
2021/09/29 18:35:56;;;;;;;5.28;3.00;;;;;;;;;;5038329;28;20068;-83
2021/09/29 18:38:29;;;;;;;2.83;1.90;;;;;;;;;;5030484;28;20045;-83
2021/09/29 18:41:18;;;;;;;3.92;1.80;;;;;;;;;;5041737;28;20045;-83
2021/09/29 18:43:50;;;;;;;4.10;2.33;;;;;;;;;;5029054;28;20056;-83
2021/09/29 18:46:21;;;;;;;4.80;2.83;;;;;;;;;;5030007;28;20049;-84
2021/09/29 18:48:53;;;;;;;4.22;1.63;;;;;;;;;;5027697;28;20177;-83
2021/09/29 18:51:29;;;;;;;4.70;1.58;;;;;;;;;;5028793;28;20092;-83
2021/09/29 18:54:03;;;;;;;3.67;1.52;;;;;;;;;;5006995;28;20363;-82
2021/09/29 18:56:47;;;;;;;3.95;1.60;;;;;;;;;;5008336;28;20064;-83
2021/09/29 19:07:49;;;;;;;2.00;1.27;;;;;;;;;;5026852;28;20230;-83
2021/09/29 19:10:16;;;;;;;3.03;1.50;;;;;;;;;;5029443;28;20562;-84
2021/09/29 19:12:46;;;;;;;2.67;1.45;;;;;;;;;;5027331;28;20053;-83
2021/09/29 19:15:13;;;;;;;4.22;1.10;;;;;;;;;;5026120;28;20266;-85
2021/09/29 19:17:42;;;;;;;3.42;1.13;;;;;;;;;;5019684;28;20071;-85
2021/09/29 19:20:10;;;;;;;2.90;0.98;;;;;;;;;;5022883;28;20053;-84
2021/09/29 19:22:37;;;;;;;4.65;0.90;;;;;;;;;;5013627;28;20116;-85
2021/09/29 19:25:04;;;;;;;1.90;0.90;;;;;;;;;;5031956;28;20044;-84
2021/09/29 19:27:33;;;;;;;3.30;1.10;;;;;;;;;;5030916;28;20437;-84
2021/09/29 19:30:00;;;;;;;2.25;1.10;;;;;;;;;;5021094;28;20280;-86